sensor_id;sensor_type;location;lat;lon;timestamp;P1;durP1;ratioP1;P2;durP2;ratioP2
12603;SDS011;6367;52.508;13.284;2022-09-20T00:00:37;1.10;;;1.00;;
12603;SDS011;6367;52.508;13.284;2022-09-20T00:03:10;2.20;;;1.50;;
12603;SDS011;6367;52.508;13.284;2022-09-20T00:05:37;2.83;;;1.33;;
12603;SDS011;6367;52.508;13.284;2022-09-20T00:08:06;2.20;;;1.50;;
12603;SDS011;6367;52.508;13.284;2022-09-20T00:10:34;2.90;;;1.20;;
12603;SDS011;6367;52.508;13.284;2022-09-20T00:13:04;1.00;;;0.90;;
12603;SDS011;6367;52.508;13.284;2022-09-20T00:15:31;3.73;;;1.13;;
12603;SDS011;6367;52.508;13.284;2022-09-20T00:17:58;1.57;;;1.00;;
12603;SDS011;6367;52.508;13.284;2022-09-20T00:20:24;1.47;;;1.03;;
12603;SDS011;6367;52.508;13.284;2022-09-20T00:22:50;1.53;;;1.20;;
12603;SDS011;6367;52.508;13.284;2022-09-20T00:25:16;1.60;;;1.33;;
12603;SDS011;6367;52.508;13.284;2022-09-20T00:27:43;2.80;;;1.10;;
12603;SDS011;6367;52.508;13.284;2022-09-20T00:30:10;2.37;;;1.00;;
12603;SDS011;6367;52.508;13.284;2022-09-20T00:32:36;1.10;;;1.00;;
12603;SDS011;6367;52.508;13.284;2022-09-20T00:35:02;2.03;;;1.10;;
12603;SDS011;6367;52.508;13.284;2022-09-20T00:37:37;1.20;;;1.07;;
12603;SDS011;6367;52.508;13.284;2022-09-20T00:40:07;4.50;;;1.07;;
12603;SDS011;6367;52.508;13.284;2022-09-20T00:42:34;1.40;;;1.30;;
12603;SDS011;6367;52.508;13.284;2022-09-20T00:45:01;2.17;;;1.30;;
12603;SDS011;6367;52.508;13.284;2022-09-20T00:47:49;1.53;;;1.10;;
12603;SDS011;6367;52.508;13.284;2022-09-20T00:52:59;1.00;;;0.90;;
12603;SDS011;6367;52.508;13.284;2022-09-20T00:55:26;4.07;;;1.33;;
12603;SDS011;6367;52.508;13.284;2022-09-20T00:57:52;2.17;;;1.20;;
12603;SDS011;6367;52.508;13.284;2022-09-20T01:00:18;3.77;;;1.00;;
12603;SDS011;6367;52.508;13.284;2022-09-20T01:02:48;2.47;;;1.10;;
12603;SDS011;6367;52.508;13.284;2022-09-20T01:05:18;1.60;;;0.90;;
12603;SDS011;6367;52.508;13.284;2022-09-20T01:07:45;1.10;;;1.00;;
12603;SDS011;6367;52.508;13.284;2022-09-20T01:10:12;2.57;;;1.00;;
12603;SDS011;6367;52.508;13.284;2022-09-20T01:12:38;2.53;;;1.10;;
12603;SDS011;6367;52.508;13.284;2022-09-20T01:15:05;1.20;;;1.00;;
12603;SDS011;6367;52.508;13.284;2022-09-20T01:17:34;2.80;;;1.17;;
12603;SDS011;6367;52.508;13.284;2022-09-20T01:28:23;2.80;;;1.10;;
12603;SDS011;6367;52.508;13.284;2022-09-20T01:30:53;1.90;;;1.23;;
12603;SDS011;6367;52.508;13.284;2022-09-20T01:33:34;0.90;;;0.90;;
12603;SDS011;6367;52.508;13.284;2022-09-20T01:36:12;1.30;;;1.20;;
12603;SDS011;6367;52.508;13.284;2022-09-20T01:38:53;1.30;;;1.20;;
12603;SDS011;6367;52.508;13.284;2022-09-20T01:41:31;3.33;;;1.43;;
12603;SDS011;6367;52.508;13.284;2022-09-20T01:46:35;1.70;;;1.10;;
12603;SDS011;6367;52.508;13.284;2022-09-20T02:00:08;1.00;;;0.90;;
12603;SDS011;6367;52.508;13.284;2022-09-20T02:09:06;1.27;;;1.17;;
12603;SDS011;6367;52.508;13.284;2022-09-20T02:17:14;1.10;;;1.00;;
12603;SDS011;6367;52.508;13.284;2022-09-20T02:31:10;1.50;;;1.13;;
12603;SDS011;6367;52.508;13.284;2022-09-20T02:39:21;2.43;;;1.10;;
12603;SDS011;6367;52.508;13.284;2022-09-20T02:41:57;1.00;;;0.90;;
12603;SDS011;6367;52.508;13.284;2022-09-20T02:45:05;1.37;;;0.90;;
12603;SDS011;6367;52.508;13.284;2022-09-20T02:47:47;1.30;;;1.00;;
12603;SDS011;6367;52.508;13.284;2022-09-20T02:53:25;3.17;;;1.40;;
12603;SDS011;6367;52.508;13.284;2022-09-20T03:01:53;1.10;;;1.00;;
12603;SDS011;6367;52.508;13.284;2022-09-20T03:07:45;1.83;;;1.07;;
12603;SDS011;6367;52.508;13.284;2022-09-20T03:10:17;1.37;;;1.10;;
12603;SDS011;6367;52.508;13.284;2022-09-20T03:13:02;1.43;;;1.10;;
12603;SDS011;6367;52.508;13.284;2022-09-20T03:18:18;0.80;;;0.80;;
12603;SDS011;6367;52.508;13.284;2022-09-20T03:20:57;1.93;;;1.00;;
12603;SDS011;6367;52.508;13.284;2022-09-20T03:29:01;1.30;;;1.20;;
12603;SDS011;6367;52.508;13.284;2022-09-20T03:31:38;2.33;;;1.20;;
12603;SDS011;6367;52.508;13.284;2022-09-20T03:34:27;1.33;;;1.07;;
12603;SDS011;6367;52.508;13.284;2022-09-20T03:42:45;1.40;;;1.27;;
12603;SDS011;6367;52.508;13.284;2022-09-20T04:00:02;1.43;;;1.00;;
12603;SDS011;6367;52.508;13.284;2022-09-20T04:19:45;1.70;;;1.57;;
12603;SDS011;6367;52.508;13.284;2022-09-20T04:22:13;1.53;;;1.20;;
12603;SDS011;6367;52.508;13.284;2022-09-20T04:24:44;1.20;;;1.10;;
12603;SDS011;6367;52.508;13.284;2022-09-20T04:27:45;1.20;;;1.10;;
12603;SDS011;6367;52.508;13.284;2022-09-20T04:30:18;2.00;;;1.67;;
12603;SDS011;6367;52.508;13.284;2022-09-20T04:38:38;1.97;;;1.10;;
12603;SDS011;6367;52.508;13.284;2022-09-20T04:57:29;1.37;;;1.20;;
12603;SDS011;6367;52.508;13.284;2022-09-20T05:24:29;2.03;;;1.10;;
12603;SDS011;6367;52.508;13.284;2022-09-20T05:27:05;2.50;;;1.40;;
12603;SDS011;6367;52.508;13.284;2022-09-20T05:30:18;1.63;;;1.47;;
12603;SDS011;6367;52.508;13.284;2022-09-20T05:35:36;1.57;;;1.30;;
12603;SDS011;6367;52.508;13.284;2022-09-20T05:38:29;1.40;;;1.30;;
12603;SDS011;6367;52.508;13.284;2022-09-20T05:49:20;2.20;;;1.30;;
12603;SDS011;6367;52.508;13.284;2022-09-20T05:57:55;1.90;;;1.30;;
12603;SDS011;6367;52.508;13.284;2022-09-20T06:00:34;1.57;;;1.10;;
12603;SDS011;6367;52.508;13.284;2022-09-20T06:03:12;1.93;;;1.30;;
12603;SDS011;6367;52.508;13.284;2022-09-20T06:05:56;1.40;;;1.30;;
12603;SDS011;6367;52.508;13.284;2022-09-20T06:08:50;2.07;;;1.40;;
12603;SDS011;6367;52.508;13.284;2022-09-20T06:11:52;2.33;;;0.93;;
12603;SDS011;6367;52.508;13.284;2022-09-20T06:14:30;2.53;;;1.40;;
12603;SDS011;6367;52.508;13.284;2022-09-20T06:22:35;2.00;;;1.40;;
12603;SDS011;6367;52.508;13.284;2022-09-20T06:27:45;1.33;;;1.23;;
12603;SDS011;6367;52.508;13.284;2022-09-20T06:30:25;1.67;;;1.17;;
12603;SDS011;6367;52.508;13.284;2022-09-20T06:32:55;4.53;;;1.47;;
12603;SDS011;6367;52.508;13.284;2022-09-20T06:35:37;2.63;;;1.40;;
12603;SDS011;6367;52.508;13.284;2022-09-20T06:41:13;1.50;;;1.37;;
12603;SDS011;6367;52.508;13.284;2022-09-20T06:43:52;2.47;;;1.67;;
12603;SDS011;6367;52.508;13.284;2022-09-20T06:46:21;1.70;;;1.37;;
12603;SDS011;6367;52.508;13.284;2022-09-20T06:48:47;2.87;;;1.50;;
12603;SDS011;6367;52.508;13.284;2022-09-20T06:51:14;1.70;;;1.50;;
12603;SDS011;6367;52.508;13.284;2022-09-20T06:53:39;1.80;;;1.40;;
12603;SDS011;6367;52.508;13.284;2022-09-20T06:56:14;3.57;;;1.33;;
12603;SDS011;6367;52.508;13.284;2022-09-20T06:58:43;1.67;;;1.30;;
12603;SDS011;6367;52.508;13.284;2022-09-20T07:01:09;1.67;;;1.50;;
12603;SDS011;6367;52.508;13.284;2022-09-20T07:03:34;2.50;;;1.70;;
12603;SDS011;6367;52.508;13.284;2022-09-20T07:06:01;2.10;;;1.50;;
12603;SDS011;6367;52.508;13.284;2022-09-20T07:08:28;1.77;;;1.50;;
12603;SDS011;6367;52.508;13.284;2022-09-20T07:10:53;5.60;;;1.80;;
12603;SDS011;6367;52.508;13.284;2022-09-20T07:13:19;4.10;;;1.77;;
12603;SDS011;6367;52.508;13.284;2022-09-20T07:15:45;2.30;;;1.53;;
12603;SDS011;6367;52.508;13.284;2022-09-20T07:18:11;1.47;;;1.33;;
12603;SDS011;6367;52.508;13.284;2022-09-20T07:20:36;1.20;;;1.10;;
12603;SDS011;6367;52.508;13.284;2022-09-20T07:23:02;2.10;;;1.40;;
12603;SDS011;6367;52.508;13.284;2022-09-20T07:25:29;3.90;;;1.50;;
12603;SDS011;6367;52.508;13.284;2022-09-20T07:27:55;3.33;;;1.63;;
12603;SDS011;6367;52.508;13.284;2022-09-20T07:30:21;2.10;;;1.40;;
12603;SDS011;6367;52.508;13.284;2022-09-20T07:32:48;3.30;;;1.43;;
12603;SDS011;6367;52.508;13.284;2022-09-20T07:35:13;5.30;;;1.80;;
12603;SDS011;6367;52.508;13.284;2022-09-20T07:37:39;2.47;;;1.30;;
12603;SDS011;6367;52.508;13.284;2022-09-20T07:40:05;5.80;;;1.63;;
12603;SDS011;6367;52.508;13.284;2022-09-20T07:42:32;1.97;;;1.43;;
12603;SDS011;6367;52.508;13.284;2022-09-20T07:44:58;2.80;;;1.60;;
12603;SDS011;6367;52.508;13.284;2022-09-20T07:47:26;2.60;;;1.70;;
12603;SDS011;6367;52.508;13.284;2022-09-20T07:49:56;1.57;;;1.30;;
12603;SDS011;6367;52.508;13.284;2022-09-20T07:52:22;3.43;;;1.40;;
12603;SDS011;6367;52.508;13.284;2022-09-20T07:54:48;1.40;;;1.30;;
12603;SDS011;6367;52.508;13.284;2022-09-20T07:57:14;4.20;;;1.97;;
12603;SDS011;6367;52.508;13.284;2022-09-20T07:59:40;2.80;;;1.77;;
12603;SDS011;6367;52.508;13.284;2022-09-20T08:02:05;3.20;;;1.80;;
12603;SDS011;6367;52.508;13.284;2022-09-20T08:04:33;4.00;;;1.80;;
12603;SDS011;6367;52.508;13.284;2022-09-20T08:06:58;2.10;;;1.60;;
12603;SDS011;6367;52.508;13.284;2022-09-20T08:09:25;1.93;;;1.83;;
12603;SDS011;6367;52.508;13.284;2022-09-20T08:11:50;1.80;;;1.70;;
12603;SDS011;6367;52.508;13.284;2022-09-20T08:14:17;2.07;;;1.77;;
12603;SDS011;6367;52.508;13.284;2022-09-20T08:16:44;1.47;;;1.37;;
12603;SDS011;6367;52.508;13.284;2022-09-20T08:19:18;3.30;;;2.00;;
12603;SDS011;6367;52.508;13.284;2022-09-20T08:21:45;3.70;;;2.03;;
12603;SDS011;6367;52.508;13.284;2022-09-20T08:24:11;1.73;;;1.47;;
12603;SDS011;6367;52.508;13.284;2022-09-20T08:26:37;3.40;;;2.03;;
12603;SDS011;6367;52.508;13.284;2022-09-20T08:29:04;3.40;;;2.00;;
12603;SDS011;6367;52.508;13.284;2022-09-20T08:31:30;3.30;;;1.50;;
12603;SDS011;6367;52.508;13.284;2022-09-20T08:34:00;4.97;;;2.10;;
12603;SDS011;6367;52.508;13.284;2022-09-20T08:36:31;2.40;;;1.83;;
12603;SDS011;6367;52.508;13.284;2022-09-20T08:38:58;3.83;;;2.20;;
12603;SDS011;6367;52.508;13.284;2022-09-20T08:43:53;3.27;;;2.27;;
12603;SDS011;6367;52.508;13.284;2022-09-20T08:46:33;2.20;;;1.57;;
12603;SDS011;6367;52.508;13.284;2022-09-20T08:49:05;2.90;;;2.10;;
12603;SDS011;6367;52.508;13.284;2022-09-20T08:51:33;3.40;;;2.20;;
12603;SDS011;6367;52.508;13.284;2022-09-20T08:54:01;2.80;;;2.07;;
12603;SDS011;6367;52.508;13.284;2022-09-20T08:56:30;3.53;;;2.57;;
12603;SDS011;6367;52.508;13.284;2022-09-20T08:59:00;2.80;;;1.70;;
12603;SDS011;6367;52.508;13.284;2022-09-20T09:01:27;2.10;;;1.90;;
12603;SDS011;6367;52.508;13.284;2022-09-20T09:04:15;5.60;;;2.30;;
12603;SDS011;6367;52.508;13.284;2022-09-20T09:06:42;3.80;;;2.30;;
12603;SDS011;6367;52.508;13.284;2022-09-20T09:09:14;4.17;;;2.70;;
12603;SDS011;6367;52.508;13.284;2022-09-20T09:11:41;3.77;;;2.60;;
12603;SDS011;6367;52.508;13.284;2022-09-20T09:14:12;3.00;;;2.20;;
12603;SDS011;6367;52.508;13.284;2022-09-20T09:17:03;4.13;;;2.33;;
12603;SDS011;6367;52.508;13.284;2022-09-20T09:19:29;2.93;;;2.60;;
12603;SDS011;6367;52.508;13.284;2022-09-20T09:21:58;3.40;;;2.70;;
12603;SDS011;6367;52.508;13.284;2022-09-20T09:24:26;3.40;;;2.60;;
12603;SDS011;6367;52.508;13.284;2022-09-20T09:29:54;2.80;;;2.57;;
12603;SDS011;6367;52.508;13.284;2022-09-20T09:32:21;4.83;;;3.23;;
12603;SDS011;6367;52.508;13.284;2022-09-20T09:35:02;2.77;;;2.57;;
12603;SDS011;6367;52.508;13.284;2022-09-20T09:37:52;2.93;;;2.67;;
12603;SDS011;6367;52.508;13.284;2022-09-20T09:40:19;3.37;;;3.00;;
12603;SDS011;6367;52.508;13.284;2022-09-20T09:42:51;3.20;;;2.90;;
12603;SDS011;6367;52.508;13.284;2022-09-20T09:48:00;4.90;;;3.40;;
12603;SDS011;6367;52.508;13.284;2022-09-20T09:50:30;5.57;;;3.27;;
12603;SDS011;6367;52.508;13.284;2022-09-20T09:53:20;7.13;;;3.10;;
12603;SDS011;6367;52.508;13.284;2022-09-20T09:55:57;4.30;;;3.00;;
12603;SDS011;6367;52.508;13.284;2022-09-20T09:58:38;3.20;;;2.90;;
12603;SDS011;6367;52.508;13.284;2022-09-20T10:01:25;4.70;;;3.27;;
12603;SDS011;6367;52.508;13.284;2022-09-20T10:04:15;3.83;;;3.43;;
12603;SDS011;6367;52.508;13.284;2022-09-20T10:07:09;3.23;;;3.03;;
12603;SDS011;6367;52.508;13.284;2022-09-20T10:09:56;3.47;;;2.80;;
12603;SDS011;6367;52.508;13.284;2022-09-20T10:12:43;3.40;;;2.93;;
12603;SDS011;6367;52.508;13.284;2022-09-20T10:15:35;3.47;;;3.17;;
12603;SDS011;6367;52.508;13.284;2022-09-20T10:29:25;2.63;;;2.43;;
12603;SDS011;6367;52.508;13.284;2022-09-20T10:40:06;4.33;;;2.90;;
12603;SDS011;6367;52.508;13.284;2022-09-20T10:45:48;4.40;;;3.03;;
12603;SDS011;6367;52.508;13.284;2022-09-20T10:48:32;3.73;;;2.60;;
12603;SDS011;6367;52.508;13.284;2022-09-20T10:51:11;4.50;;;3.00;;
12603;SDS011;6367;52.508;13.284;2022-09-20T10:54:01;5.27;;;2.93;;
12603;SDS011;6367;52.508;13.284;2022-09-20T10:57:01;4.80;;;2.70;;
12603;SDS011;6367;52.508;13.284;2022-09-20T11:08:33;5.33;;;3.50;;
12603;SDS011;6367;52.508;13.284;2022-09-20T11:11:09;4.27;;;3.17;;
12603;SDS011;6367;52.508;13.284;2022-09-20T11:16:34;5.57;;;3.33;;
12603;SDS011;6367;52.508;13.284;2022-09-20T11:21:46;2.60;;;2.40;;
12603;SDS011;6367;52.508;13.284;2022-09-20T11:24:26;3.20;;;2.53;;
12603;SDS011;6367;52.508;13.284;2022-09-20T11:27:25;5.07;;;3.00;;
12603;SDS011;6367;52.508;13.284;2022-09-20T11:30:06;4.30;;;2.80;;
12603;SDS011;6367;52.508;13.284;2022-09-20T11:37:48;5.47;;;2.67;;
12603;SDS011;6367;52.508;13.284;2022-09-20T11:40:45;3.63;;;2.50;;
12603;SDS011;6367;52.508;13.284;2022-09-20T11:43:17;3.70;;;2.20;;
12603;SDS011;6367;52.508;13.284;2022-09-20T11:45:45;4.53;;;2.53;;
12603;SDS011;6367;52.508;13.284;2022-09-20T11:48:20;2.53;;;2.33;;
12603;SDS011;6367;52.508;13.284;2022-09-20T11:50:54;9.80;;;2.40;;
12603;SDS011;6367;52.508;13.284;2022-09-20T11:53:41;4.30;;;2.20;;
12603;SDS011;6367;52.508;13.284;2022-09-20T11:56:24;3.07;;;2.10;;
12603;SDS011;6367;52.508;13.284;2022-09-20T11:59:03;3.00;;;2.70;;
12603;SDS011;6367;52.508;13.284;2022-09-20T12:01:36;3.53;;;3.13;;
12603;SDS011;6367;52.508;13.284;2022-09-20T12:04:06;4.13;;;3.07;;
12603;SDS011;6367;52.508;13.284;2022-09-20T12:06:37;5.00;;;3.40;;
12603;SDS011;6367;52.508;13.284;2022-09-20T12:09:20;3.17;;;2.97;;
12603;SDS011;6367;52.508;13.284;2022-09-20T12:11:49;4.50;;;2.70;;
12603;SDS011;6367;52.508;13.284;2022-09-20T12:14:17;4.23;;;3.33;;
12603;SDS011;6367;52.508;13.284;2022-09-20T12:16:47;4.20;;;3.10;;
12603;SDS011;6367;52.508;13.284;2022-09-20T12:24:32;5.73;;;3.27;;
12603;SDS011;6367;52.508;13.284;2022-09-20T12:27:00;3.70;;;3.37;;
12603;SDS011;6367;52.508;13.284;2022-09-20T12:30:01;2.67;;;2.47;;
12603;SDS011;6367;52.508;13.284;2022-09-20T12:32:44;3.77;;;3.00;;
12603;SDS011;6367;52.508;13.284;2022-09-20T12:41:09;5.53;;;2.47;;
12603;SDS011;6367;52.508;13.284;2022-09-20T12:43:47;2.43;;;2.17;;
12603;SDS011;6367;52.508;13.284;2022-09-20T12:46:18;2.70;;;2.37;;
12603;SDS011;6367;52.508;13.284;2022-09-20T12:52:26;5.00;;;1.63;;
12603;SDS011;6367;52.508;13.284;2022-09-20T13:00:39;2.43;;;1.67;;
12603;SDS011;6367;52.508;13.284;2022-09-20T13:03:21;1.93;;;1.10;;
12603;SDS011;6367;52.508;13.284;2022-09-20T13:13:49;0.73;;;0.73;;
12603;SDS011;6367;52.508;13.284;2022-09-20T13:16:20;3.50;;;0.80;;
12603;SDS011;6367;52.508;13.284;2022-09-20T13:18:55;2.67;;;0.90;;
12603;SDS011;6367;52.508;13.284;2022-09-20T13:21:28;0.80;;;0.70;;
12603;SDS011;6367;52.508;13.284;2022-09-20T13:23:54;1.00;;;0.80;;
12603;SDS011;6367;52.508;13.284;2022-09-20T13:26:23;0.90;;;0.67;;
12603;SDS011;6367;52.508;13.284;2022-09-20T13:28:53;1.57;;;0.90;;
12603;SDS011;6367;52.508;13.284;2022-09-20T13:33:50;1.20;;;1.10;;
12603;SDS011;6367;52.508;13.284;2022-09-20T13:36:34;2.53;;;1.10;;
12603;SDS011;6367;52.508;13.284;2022-09-20T13:39:02;1.60;;;0.90;;
12603;SDS011;6367;52.508;13.284;2022-09-20T13:41:31;1.90;;;1.07;;
12603;SDS011;6367;52.508;13.284;2022-09-20T13:43:59;1.20;;;1.10;;
12603;SDS011;6367;52.508;13.284;2022-09-20T13:46:30;1.57;;;1.00;;
12603;SDS011;6367;52.508;13.284;2022-09-20T13:48:57;1.33;;;1.00;;
12603;SDS011;6367;52.508;13.284;2022-09-20T13:51:41;1.27;;;1.17;;
12603;SDS011;6367;52.508;13.284;2022-09-20T13:56:49;1.97;;;1.40;;
12603;SDS011;6367;52.508;13.284;2022-09-20T13:59:16;1.27;;;1.10;;
12603;SDS011;6367;52.508;13.284;2022-09-20T14:01:47;1.20;;;1.10;;
12603;SDS011;6367;52.508;13.284;2022-09-20T14:04:19;2.17;;;1.20;;
12603;SDS011;6367;52.508;13.284;2022-09-20T14:06:47;0.90;;;0.90;;
12603;SDS011;6367;52.508;13.284;2022-09-20T14:09:20;1.90;;;1.20;;
12603;SDS011;6367;52.508;13.284;2022-09-20T14:11:55;0.80;;;0.80;;
12603;SDS011;6367;52.508;13.284;2022-09-20T14:14:23;0.83;;;0.80;;
12603;SDS011;6367;52.508;13.284;2022-09-20T14:16:49;2.20;;;1.23;;
12603;SDS011;6367;52.508;13.284;2022-09-20T14:19:17;1.10;;;1.00;;
12603;SDS011;6367;52.508;13.284;2022-09-20T14:21:45;1.60;;;1.30;;
12603;SDS011;6367;52.508;13.284;2022-09-20T14:26:38;1.20;;;1.00;;
12603;SDS011;6367;52.508;13.284;2022-09-20T14:31:56;2.53;;;0.80;;
12603;SDS011;6367;52.508;13.284;2022-09-20T14:34:45;1.20;;;1.03;;
12603;SDS011;6367;52.508;13.284;2022-09-20T14:37:25;1.10;;;1.00;;
12603;SDS011;6367;52.508;13.284;2022-09-20T14:39:52;1.37;;;0.90;;
12603;SDS011;6367;52.508;13.284;2022-09-20T14:42:42;0.87;;;0.80;;
12603;SDS011;6367;52.508;13.284;2022-09-20T14:45:53;0.70;;;0.70;;
12603;SDS011;6367;52.508;13.284;2022-09-20T14:48:05;1.90;;;0.90;;
12603;SDS011;6367;52.508;13.284;2022-09-20T14:50:44;1.83;;;0.80;;
12603;SDS011;6367;52.508;13.284;2022-09-20T14:53:30;0.83;;;0.80;;
12603;SDS011;6367;52.508;13.284;2022-09-20T14:55:58;0.90;;;0.80;;
12603;SDS011;6367;52.508;13.284;2022-09-20T14:58:29;1.37;;;0.90;;
12603;SDS011;6367;52.508;13.284;2022-09-20T15:00:57;1.10;;;0.90;;
12603;SDS011;6367;52.508;13.284;2022-09-20T15:03:49;2.23;;;0.80;;
12603;SDS011;6367;52.508;13.284;2022-09-20T15:06:16;1.10;;;1.00;;
12603;SDS011;6367;52.508;13.284;2022-09-20T15:08:41;1.97;;;0.90;;
12603;SDS011;6367;52.508;13.284;2022-09-20T15:11:11;1.23;;;1.07;;
12603;SDS011;6367;52.508;13.284;2022-09-20T15:13:38;3.03;;;1.00;;
12603;SDS011;6367;52.508;13.284;2022-09-20T15:16:04;1.10;;;0.80;;
12603;SDS011;6367;52.508;13.284;2022-09-20T15:18:31;1.10;;;0.90;;
12603;SDS011;6367;52.508;13.284;2022-09-20T15:21:05;1.20;;;0.80;;
12603;SDS011;6367;52.508;13.284;2022-09-20T15:23:31;1.13;;;1.03;;
12603;SDS011;6367;52.508;13.284;2022-09-20T15:25:57;0.90;;;0.90;;
12603;SDS011;6367;52.508;13.284;2022-09-20T15:28:24;1.00;;;0.90;;
12603;SDS011;6367;52.508;13.284;2022-09-20T15:30:50;1.20;;;1.00;;
12603;SDS011;6367;52.508;13.284;2022-09-20T15:33:17;1.40;;;1.20;;
12603;SDS011;6367;52.508;13.284;2022-09-20T15:35:44;1.40;;;1.20;;
12603;SDS011;6367;52.508;13.284;2022-09-20T15:38:10;1.80;;;1.40;;
12603;SDS011;6367;52.508;13.284;2022-09-20T15:40:40;2.27;;;1.17;;
12603;SDS011;6367;52.508;13.284;2022-09-20T15:43:07;1.10;;;1.00;;
12603;SDS011;6367;52.508;13.284;2022-09-20T15:45:35;1.50;;;1.40;;
12603;SDS011;6367;52.508;13.284;2022-09-20T15:48:14;1.47;;;1.10;;
12603;SDS011;6367;52.508;13.284;2022-09-20T15:50:45;1.20;;;0.90;;
12603;SDS011;6367;52.508;13.284;2022-09-20T15:53:33;1.47;;;0.90;;
12603;SDS011;6367;52.508;13.284;2022-09-20T15:56:01;2.13;;;0.80;;
12603;SDS011;6367;52.508;13.284;2022-09-20T15:58:45;4.03;;;1.20;;
12603;SDS011;6367;52.508;13.284;2022-09-20T16:01:13;0.90;;;0.70;;
12603;SDS011;6367;52.508;13.284;2022-09-20T16:03:40;0.83;;;0.80;;
12603;SDS011;6367;52.508;13.284;2022-09-20T16:06:07;1.30;;;1.20;;
12603;SDS011;6367;52.508;13.284;2022-09-20T16:08:36;1.03;;;0.90;;
12603;SDS011;6367;52.508;13.284;2022-09-20T16:11:03;1.53;;;1.30;;
12603;SDS011;6367;52.508;13.284;2022-09-20T16:13:30;4.47;;;3.07;;
12603;SDS011;6367;52.508;13.284;2022-09-20T16:15:56;4.40;;;3.10;;
12603;SDS011;6367;52.508;13.284;2022-09-20T16:18:26;5.00;;;2.70;;
12603;SDS011;6367;52.508;13.284;2022-09-20T16:21:12;2.70;;;1.93;;
12603;SDS011;6367;52.508;13.284;2022-09-20T16:23:40;1.93;;;1.20;;
12603;SDS011;6367;52.508;13.284;2022-09-20T16:26:08;1.93;;;1.70;;
12603;SDS011;6367;52.508;13.284;2022-09-20T16:28:38;3.03;;;1.20;;
12603;SDS011;6367;52.508;13.284;2022-09-20T16:31:04;1.37;;;1.20;;
12603;SDS011;6367;52.508;13.284;2022-09-20T16:33:31;2.93;;;1.20;;
12603;SDS011;6367;52.508;13.284;2022-09-20T16:35:58;1.30;;;1.07;;
12603;SDS011;6367;52.508;13.284;2022-09-20T16:38:24;1.37;;;1.13;;
12603;SDS011;6367;52.508;13.284;2022-09-20T16:40:49;1.33;;;1.00;;
12603;SDS011;6367;52.508;13.284;2022-09-20T16:43:19;1.23;;;1.13;;
12603;SDS011;6367;52.508;13.284;2022-09-20T16:45:48;4.00;;;1.23;;
12603;SDS011;6367;52.508;13.284;2022-09-20T16:48:23;5.30;;;1.10;;
12603;SDS011;6367;52.508;13.284;2022-09-20T16:50:55;3.47;;;1.60;;
12603;SDS011;6367;52.508;13.284;2022-09-20T16:53:21;1.33;;;1.10;;
12603;SDS011;6367;52.508;13.284;2022-09-20T16:55:47;2.43;;;1.30;;
12603;SDS011;6367;52.508;13.284;2022-09-20T16:58:13;1.97;;;1.10;;
12603;SDS011;6367;52.508;13.284;2022-09-20T17:00:39;2.80;;;1.30;;
12603;SDS011;6367;52.508;13.284;2022-09-20T17:03:04;1.80;;;1.20;;
12603;SDS011;6367;52.508;13.284;2022-09-20T17:05:30;1.77;;;1.23;;
12603;SDS011;6367;52.508;13.284;2022-09-20T17:07:56;2.13;;;1.40;;
12603;SDS011;6367;52.508;13.284;2022-09-20T17:10:21;1.50;;;1.30;;
12603;SDS011;6367;52.508;13.284;2022-09-20T17:12:48;1.10;;;1.00;;
12603;SDS011;6367;52.508;13.284;2022-09-20T17:15:17;1.60;;;1.27;;
12603;SDS011;6367;52.508;13.284;2022-09-20T17:17:43;1.37;;;1.27;;
12603;SDS011;6367;52.508;13.284;2022-09-20T17:20:09;6.33;;;1.47;;
12603;SDS011;6367;52.508;13.284;2022-09-20T17:22:36;1.33;;;1.20;;
12603;SDS011;6367;52.508;13.284;2022-09-20T17:25:01;1.40;;;1.30;;
12603;SDS011;6367;52.508;13.284;2022-09-20T17:27:27;1.97;;;1.60;;
12603;SDS011;6367;52.508;13.284;2022-09-20T17:29:53;2.60;;;2.13;;
12603;SDS011;6367;52.508;13.284;2022-09-20T17:32:18;2.43;;;2.03;;
12603;SDS011;6367;52.508;13.284;2022-09-20T17:34:44;2.10;;;1.80;;
12603;SDS011;6367;52.508;13.284;2022-09-20T17:37:10;1.53;;;1.40;;
12603;SDS011;6367;52.508;13.284;2022-09-20T17:39:36;1.70;;;1.60;;
12603;SDS011;6367;52.508;13.284;2022-09-20T17:42:01;3.43;;;2.10;;
12603;SDS011;6367;52.508;13.284;2022-09-20T17:44:27;2.37;;;2.17;;
12603;SDS011;6367;52.508;13.284;2022-09-20T17:46:52;6.13;;;2.90;;
12603;SDS011;6367;52.508;13.284;2022-09-20T17:49:19;4.13;;;3.20;;
12603;SDS011;6367;52.508;13.284;2022-09-20T17:51:49;4.20;;;3.13;;
12603;SDS011;6367;52.508;13.284;2022-09-20T17:54:16;5.43;;;2.73;;
12603;SDS011;6367;52.508;13.284;2022-09-20T17:56:44;4.60;;;2.73;;
12603;SDS011;6367;52.508;13.284;2022-09-20T17:59:12;3.50;;;2.00;;
12603;SDS011;6367;52.508;13.284;2022-09-20T18:01:42;2.90;;;2.27;;
12603;SDS011;6367;52.508;13.284;2022-09-20T18:04:09;3.10;;;2.27;;
12603;SDS011;6367;52.508;13.284;2022-09-20T18:06:39;3.00;;;2.27;;
12603;SDS011;6367;52.508;13.284;2022-09-20T18:09:11;3.10;;;2.20;;
12603;SDS011;6367;52.508;13.284;2022-09-20T18:11:43;2.97;;;2.67;;
12603;SDS011;6367;52.508;13.284;2022-09-20T18:14:12;3.50;;;1.93;;
12603;SDS011;6367;52.508;13.284;2022-09-20T18:16:38;3.30;;;2.47;;
12603;SDS011;6367;52.508;13.284;2022-09-20T18:19:04;4.97;;;2.50;;
12603;SDS011;6367;52.508;13.284;2022-09-20T18:21:31;4.43;;;2.67;;
12603;SDS011;6367;52.508;13.284;2022-09-20T18:23:59;3.50;;;2.70;;
12603;SDS011;6367;52.508;13.284;2022-09-20T18:26:27;3.90;;;2.63;;
12603;SDS011;6367;52.508;13.284;2022-09-20T18:31:22;4.73;;;2.83;;
12603;SDS011;6367;52.508;13.284;2022-09-20T18:34:09;3.03;;;2.73;;
12603;SDS011;6367;52.508;13.284;2022-09-20T18:37:02;6.00;;;3.40;;
12603;SDS011;6367;52.508;13.284;2022-09-20T18:39:30;5.80;;;2.80;;
12603;SDS011;6367;52.508;13.284;2022-09-20T18:41:57;3.63;;;2.80;;
12603;SDS011;6367;52.508;13.284;2022-09-20T18:44:23;3.10;;;2.47;;
12603;SDS011;6367;52.508;13.284;2022-09-20T18:46:50;2.60;;;2.30;;
12603;SDS011;6367;52.508;13.284;2022-09-20T18:49:19;4.23;;;2.93;;
12603;SDS011;6367;52.508;13.284;2022-09-20T18:51:45;2.30;;;2.20;;
12603;SDS011;6367;52.508;13.284;2022-09-20T18:54:12;3.60;;;2.60;;
12603;SDS011;6367;52.508;13.284;2022-09-20T18:56:39;2.70;;;2.30;;
12603;SDS011;6367;52.508;13.284;2022-09-20T18:59:12;2.50;;;2.30;;
12603;SDS011;6367;52.508;13.284;2022-09-20T19:13:32;2.50;;;2.10;;
12603;SDS011;6367;52.508;13.284;2022-09-20T19:16:23;4.07;;;2.40;;
12603;SDS011;6367;52.508;13.284;2022-09-20T19:27:12;2.90;;;2.50;;
12603;SDS011;6367;52.508;13.284;2022-09-20T19:29:37;2.93;;;2.67;;
12603;SDS011;6367;52.508;13.284;2022-09-20T19:32:03;3.07;;;2.20;;
12603;SDS011;6367;52.508;13.284;2022-09-20T19:34:30;2.60;;;2.40;;
12603;SDS011;6367;52.508;13.284;2022-09-20T19:37:07;2.40;;;2.20;;
12603;SDS011;6367;52.508;13.284;2022-09-20T19:40:06;3.27;;;2.47;;
12603;SDS011;6367;52.508;13.284;2022-09-20T19:48:37;3.13;;;2.70;;
12603;SDS011;6367;52.508;13.284;2022-09-20T19:50:52;3.30;;;3.00;;
12603;SDS011;6367;52.508;13.284;2022-09-20T19:53:19;4.67;;;3.30;;
12603;SDS011;6367;52.508;13.284;2022-09-20T19:55:52;3.23;;;2.80;;
12603;SDS011;6367;52.508;13.284;2022-09-20T19:58:28;3.73;;;3.33;;
12603;SDS011;6367;52.508;13.284;2022-09-20T20:00:54;3.93;;;2.90;;
12603;SDS011;6367;52.508;13.284;2022-09-20T20:03:19;3.50;;;3.13;;
12603;SDS011;6367;52.508;13.284;2022-09-20T20:08:29;3.13;;;2.83;;
12603;SDS011;6367;52.508;13.284;2022-09-20T20:11:12;3.40;;;3.10;;
12603;SDS011;6367;52.508;13.284;2022-09-20T20:17:06;4.90;;;3.10;;
12603;SDS011;6367;52.508;13.284;2022-09-20T20:20:06;4.10;;;2.90;;
12603;SDS011;6367;52.508;13.284;2022-09-20T20:28:15;3.77;;;2.90;;
12603;SDS011;6367;52.508;13.284;2022-09-20T20:30:41;7.20;;;3.20;;
12603;SDS011;6367;52.508;13.284;2022-09-20T20:33:12;3.50;;;2.37;;